createdAt,value
2022-10-16T00:00:46.531Z,13.76
2022-10-16T00:03:16.341Z,13.74
2022-10-16T00:05:47.146Z,13.76
2022-10-16T00:08:16.992Z,13.75
2022-10-16T00:10:46.674Z,13.75
2022-10-16T00:13:18.153Z,13.76
2022-10-16T00:15:50.476Z,13.74
2022-10-16T00:18:20.186Z,13.74
2022-10-16T00:20:49.912Z,13.74
2022-10-16T00:23:19.704Z,13.72
2022-10-16T00:25:57.813Z,13.71
2022-10-16T00:28:27.744Z,13.69
2022-10-16T00:31:00.401Z,13.69
2022-10-16T00:33:30.595Z,13.66
2022-10-16T00:36:01.729Z,13.66
2022-10-16T00:38:31.547Z,13.65
2022-10-16T00:41:01.403Z,13.63
2022-10-16T00:43:42.039Z,13.62
2022-10-16T00:46:21.016Z,13.60
2022-10-16T00:48:55.880Z,13.59
2022-10-16T00:51:29.517Z,13.60
2022-10-16T00:54:00.112Z,13.59
2022-10-16T00:56:30.220Z,13.60
2022-10-16T00:59:00.260Z,13.58
2022-10-16T01:01:32.693Z,13.58
2022-10-16T01:04:02.621Z,13.58
2022-10-16T01:06:39.182Z,13.57
2022-10-16T01:09:18.360Z,13.57
2022-10-16T01:12:02.148Z,13.57
2022-10-16T01:14:44.465Z,13.55
2022-10-16T01:17:22.356Z,13.53
2022-10-16T01:20:08.768Z,13.53
2022-10-16T01:22:47.442Z,13.52
2022-10-16T01:25:26.919Z,13.52
2022-10-16T01:28:01.150Z,13.52
2022-10-16T01:30:36.101Z,13.52
2022-10-16T01:33:12.501Z,13.52
2022-10-16T01:35:46.543Z,13.52
2022-10-16T01:38:20.916Z,13.53
2022-10-16T01:40:54.942Z,13.56
2022-10-16T01:43:32.737Z,13.58
2022-10-16T01:46:04.446Z,13.60
2022-10-16T01:48:36.961Z,13.60
2022-10-16T01:51:11.233Z,13.61
2022-10-16T01:53:43.164Z,13.62
2022-10-16T01:56:16.114Z,13.65
2022-10-16T01:58:53.277Z,13.66
2022-10-16T02:01:25.870Z,13.66
2022-10-16T02:03:59.745Z,13.69
2022-10-16T02:06:30.690Z,13.71
2022-10-16T02:09:00.468Z,13.71
2022-10-16T02:11:30.162Z,13.74
2022-10-16T02:14:06.701Z,13.75
2022-10-16T02:16:38.366Z,13.77
2022-10-16T02:19:08.871Z,13.75
2022-10-16T02:21:46.703Z,13.74
2022-10-16T02:24:23.091Z,13.72
2022-10-16T02:26:56.610Z,13.71
2022-10-16T02:29:30.769Z,13.73
2022-10-16T02:32:03.068Z,13.74
2022-10-16T02:34:35.761Z,13.75
2022-10-16T02:37:08.365Z,13.78
2022-10-16T02:39:38.748Z,13.79
2022-10-16T02:42:08.497Z,13.78
2022-10-16T02:44:40.873Z,13.78
2022-10-16T02:47:13.713Z,13.78
2022-10-16T02:49:43.528Z,13.77
2022-10-16T02:52:13.253Z,13.78
2022-10-16T02:54:42.936Z,13.77
2022-10-16T02:57:12.901Z,13.79
2022-10-16T02:59:45.234Z,13.79
2022-10-16T03:02:15.008Z,13.78
2022-10-16T03:04:44.697Z,13.80
2022-10-16T03:07:14.512Z,13.80
2022-10-16T03:09:44.231Z,13.81
2022-10-16T03:12:13.917Z,13.82
2022-10-16T03:14:46.233Z,13.83
2022-10-16T03:17:17.907Z,13.83
2022-10-16T03:19:47.829Z,13.83
2022-10-16T03:22:17.592Z,13.83
2022-10-16T03:24:47.537Z,13.81
2022-10-16T03:27:17.258Z,13.80
2022-10-16T03:29:49.571Z,13.78
2022-10-16T03:32:19.590Z,13.75
2022-10-16T03:34:49.278Z,13.74
2022-10-16T03:37:18.984Z,13.71
2022-10-16T03:39:48.670Z,13.70
2022-10-16T03:42:18.363Z,13.67
2022-10-16T03:44:50.751Z,13.64
2022-10-16T03:47:22.857Z,13.61
2022-10-16T03:49:52.697Z,13.57
2022-10-16T03:52:22.400Z,13.54
2022-10-16T03:54:52.088Z,13.52
2022-10-16T03:57:22.006Z,13.50
2022-10-16T03:59:54.544Z,13.47
2022-10-16T04:02:24.298Z,13.45
2022-10-16T04:04:54.017Z,13.42
2022-10-16T04:07:23.922Z,13.42
2022-10-16T04:09:54.464Z,13.40
2022-10-16T04:12:24.183Z,13.40
2022-10-16T04:14:56.544Z,13.40
2022-10-16T04:17:26.553Z,13.41
2022-10-16T04:19:56.442Z,13.44
2022-10-16T04:25:15.833Z,13.42
2022-10-16T04:27:46.293Z,13.41
2022-10-16T04:30:18.842Z,13.42
2022-10-16T04:32:52.025Z,13.43
2022-10-16T04:35:22.184Z,13.43
2022-10-16T04:37:51.887Z,13.44
2022-10-16T04:40:21.585Z,13.45
2022-10-16T04:42:51.290Z,13.44
2022-10-16T04:45:23.639Z,13.46
2022-10-16T04:47:53.306Z,13.46
2022-10-16T04:50:23.005Z,13.46
2022-10-16T04:52:52.756Z,13.46
2022-10-16T04:55:22.458Z,13.48
2022-10-16T04:57:52.239Z,13.49
2022-10-16T05:00:24.613Z,13.49
2022-10-16T05:02:54.525Z,13.50
2022-10-16T05:05:24.210Z,13.51
2022-10-16T05:07:53.912Z,13.50
2022-10-16T05:10:24.060Z,13.52
2022-10-16T05:12:53.775Z,13.52
2022-10-16T05:15:26.136Z,13.54
2022-10-16T05:17:59.113Z,13.56
2022-10-16T05:20:28.812Z,13.56
2022-10-16T05:22:58.588Z,13.56
2022-10-16T05:25:28.466Z,13.57
2022-10-16T05:27:58.156Z,13.58
2022-10-16T05:30:30.478Z,13.60
2022-10-16T05:33:00.196Z,13.60
2022-10-16T05:35:29.872Z,13.60
2022-10-16T05:37:59.552Z,13.59
2022-10-16T05:40:29.272Z,13.60
2022-10-16T05:42:59.660Z,13.62
2022-10-16T05:45:31.951Z,13.62
2022-10-16T05:48:01.612Z,13.62
2022-10-16T05:50:31.381Z,13.62
2022-10-16T05:53:01.093Z,13.63
2022-10-16T05:55:30.752Z,13.63
2022-10-16T05:58:00.461Z,13.62
2022-10-16T06:00:32.761Z,13.61
2022-10-16T06:03:03.473Z,13.61
2022-10-16T06:05:33.148Z,13.58
2022-10-16T06:08:03.051Z,13.55
2022-10-16T06:10:32.739Z,13.54
2022-10-16T06:13:02.423Z,13.53
2022-10-16T06:15:34.740Z,13.52
2022-10-16T06:18:04.420Z,13.51
2022-10-16T06:20:34.116Z,13.50
2022-10-16T06:23:05.162Z,13.50
2022-10-16T06:25:35.057Z,13.51
2022-10-16T06:28:04.733Z,13.52
2022-10-16T06:30:37.004Z,13.52
2022-10-16T06:33:06.858Z,13.54
2022-10-16T06:35:36.548Z,13.54
2022-10-16T06:38:06.312Z,13.54
2022-10-16T06:40:35.982Z,13.54
2022-10-16T06:43:05.703Z,13.55
2022-10-16T06:45:38.040Z,13.55
2022-10-16T06:48:07.920Z,13.55
2022-10-16T06:50:37.609Z,13.57
2022-10-16T06:53:07.316Z,13.58
2022-10-16T06:55:36.993Z,13.57
2022-10-16T06:58:06.811Z,13.60
2022-10-16T07:00:39.117Z,13.60
2022-10-16T07:03:08.972Z,13.61
2022-10-16T07:05:41.576Z,13.64
2022-10-16T07:08:11.878Z,13.64
2022-10-16T07:10:41.661Z,13.66
2022-10-16T07:13:14.277Z,13.67
2022-10-16T07:15:46.595Z,13.66
2022-10-16T07:18:16.336Z,13.67
2022-10-16T07:20:46.036Z,13.67
2022-10-16T07:23:15.806Z,13.64
2022-10-16T07:25:45.682Z,13.66
2022-10-16T07:28:15.457Z,13.66
2022-10-16T07:30:47.769Z,13.66
2022-10-16T07:33:17.539Z,13.67
2022-10-16T07:35:54.300Z,13.66
2022-10-16T07:38:25.630Z,13.67
2022-10-16T07:41:00.905Z,13.69
2022-10-16T07:43:31.205Z,13.70
2022-10-16T07:46:06.331Z,13.72
2022-10-16T07:48:38.455Z,13.73
2022-10-16T07:51:10.453Z,13.75
2022-10-16T07:53:40.259Z,13.76
2022-10-16T07:56:11.910Z,13.78
2022-10-16T07:58:41.641Z,13.81
2022-10-16T08:01:15.778Z,13.85
2022-10-16T08:03:46.182Z,13.90
2022-10-16T08:06:16.057Z,13.93
2022-10-16T08:08:46.045Z,13.99
2022-10-16T08:11:15.941Z,14.02
2022-10-16T08:13:46.281Z,14.07
2022-10-16T08:16:19.057Z,14.12
2022-10-16T08:18:48.761Z,14.20
2022-10-16T08:21:21.741Z,14.27
2022-10-16T08:23:55.059Z,14.33
2022-10-16T08:26:28.576Z,14.38
2022-10-16T08:28:59.033Z,14.39
2022-10-16T08:31:31.624Z,14.42
2022-10-16T08:34:01.370Z,14.40
2022-10-16T08:36:31.094Z,14.41
2022-10-16T08:39:00.785Z,14.42
2022-10-16T08:42:00.364Z,14.44
2022-10-16T08:45:03.734Z,14.49
2022-10-16T08:47:49.636Z,14.50
2022-10-16T08:50:25.516Z,14.53
2022-10-16T08:52:55.452Z,14.56
2022-10-16T08:55:34.518Z,14.61
2022-10-16T08:58:04.850Z,14.62
2022-10-16T09:00:34.883Z,14.61
2022-10-16T09:03:18.102Z,14.65
2022-10-16T09:06:13.326Z,14.66
2022-10-16T09:08:56.705Z,14.66
2022-10-16T09:11:35.269Z,14.70
2022-10-16T09:14:12.018Z,14.73
2022-10-16T09:16:47.565Z,14.76
2022-10-16T09:19:27.276Z,14.79
2022-10-16T09:21:58.155Z,14.82
2022-10-16T09:24:30.057Z,14.87
2022-10-16T09:26:59.872Z,14.89
2022-10-16T09:29:29.771Z,14.95
2022-10-16T09:32:10.142Z,15.01
2022-10-16T09:34:47.673Z,15.04
2022-10-16T09:37:22.278Z,15.09
2022-10-16T09:39:54.022Z,15.13
2022-10-16T09:42:27.051Z,15.19
2022-10-16T09:44:57.595Z,15.22
2022-10-16T09:47:30.037Z,15.27
2022-10-16T09:50:07.090Z,15.33
2022-10-16T09:52:37.462Z,15.36
2022-10-16T09:55:18.608Z,15.41
2022-10-16T09:57:54.766Z,15.44
2022-10-16T10:00:26.213Z,15.47
2022-10-16T10:02:57.736Z,15.52
2022-10-16T10:05:32.343Z,15.56
2022-10-16T10:08:07.047Z,15.62
2022-10-16T10:10:41.138Z,15.65
2022-10-16T10:13:23.137Z,15.69
2022-10-16T10:15:54.674Z,15.69
2022-10-16T10:18:27.637Z,15.68
2022-10-16T10:21:07.365Z,15.68
2022-10-16T10:23:37.148Z,15.67
2022-10-16T10:26:15.105Z,15.67
2022-10-16T10:29:00.160Z,15.71
2022-10-16T10:31:36.828Z,15.70
2022-10-16T10:34:22.398Z,15.68
2022-10-16T10:37:00.888Z,15.65
2022-10-16T10:39:37.306Z,15.66
2022-10-16T10:42:24.572Z,15.68
2022-10-16T10:45:04.224Z,15.73
2022-10-16T10:47:46.395Z,15.81
2022-10-16T10:50:26.761Z,15.89
2022-10-16T10:53:08.201Z,15.93
2022-10-16T10:55:44.319Z,15.94
2022-10-16T10:58:43.338Z,15.93
2022-10-16T11:01:15.886Z,15.91
2022-10-16T11:03:58.864Z,15.84
2022-10-16T11:06:32.262Z,15.77
2022-10-16T11:09:13.414Z,15.72
2022-10-16T11:11:47.847Z,15.63
2022-10-16T11:14:22.747Z,15.56
2022-10-16T11:16:59.755Z,15.58
2022-10-16T11:19:41.246Z,15.62
2022-10-16T11:22:19.331Z,15.71
2022-10-16T11:27:31.594Z,15.87
2022-10-16T11:30:05.652Z,15.93
2022-10-16T11:32:42.717Z,15.92
2022-10-16T11:35:21.357Z,15.89
2022-10-16T11:37:54.596Z,15.86
2022-10-16T11:40:34.600Z,15.86
2022-10-16T11:43:16.209Z,15.87
2022-10-16T11:45:50.168Z,15.84
2022-10-16T11:48:29.903Z,15.86
2022-10-16T11:51:06.612Z,15.84
2022-10-16T11:53:48.222Z,15.87
2022-10-16T11:56:23.193Z,15.94
2022-10-16T11:59:02.326Z,15.98
2022-10-16T12:01:37.877Z,16.04
2022-10-16T12:04:19.364Z,16.12
2022-10-16T12:06:54.099Z,16.20
2022-10-16T12:09:28.621Z,16.27
2022-10-16T12:12:01.978Z,16.34
2022-10-16T12:15:04.013Z,16.37
2022-10-16T12:17:40.878Z,16.38
2022-10-16T12:20:31.931Z,16.41
2022-10-16T12:23:04.647Z,16.45
2022-10-16T12:25:37.331Z,16.46
2022-10-16T12:28:21.956Z,16.48
2022-10-16T12:30:58.380Z,16.52
2022-10-16T12:33:30.502Z,16.53
2022-10-16T12:36:02.035Z,16.56
2022-10-16T12:38:39.364Z,16.57
2022-10-16T12:41:12.054Z,16.58
2022-10-16T12:43:46.367Z,16.60
2022-10-16T12:46:42.153Z,16.64
2022-10-16T12:49:27.111Z,16.66
2022-10-16T12:51:57.035Z,16.70
2022-10-16T12:54:32.343Z,16.71
2022-10-16T12:57:35.513Z,16.75
2022-10-16T13:00:22.693Z,16.75
2022-10-16T13:03:10.349Z,16.78
2022-10-16T13:05:55.936Z,16.77
2022-10-16T13:08:45.550Z,16.78
2022-10-16T13:11:24.978Z,16.75
2022-10-16T13:14:15.693Z,16.72
2022-10-16T13:17:00.508Z,16.68
2022-10-16T13:19:38.437Z,16.66
2022-10-16T13:22:17.202Z,16.65
2022-10-16T13:24:57.249Z,16.69
2022-10-16T13:27:39.073Z,16.72
2022-10-16T13:30:16.885Z,16.74
2022-10-16T13:35:25.732Z,16.73
2022-10-16T13:38:06.600Z,16.71
2022-10-16T13:40:36.682Z,16.69
2022-10-16T13:43:06.718Z,16.68
2022-10-16T13:45:36.505Z,16.66
2022-10-16T13:48:13.648Z,16.63
2022-10-16T13:50:43.400Z,16.62
2022-10-16T13:53:17.782Z,16.59
2022-10-16T13:55:47.579Z,16.59
2022-10-16T13:58:20.959Z,16.57
2022-10-16T14:00:59.353Z,16.59
2022-10-16T14:03:33.884Z,16.59
2022-10-16T14:06:06.441Z,16.58
2022-10-16T14:08:36.930Z,16.55
2022-10-16T14:11:06.761Z,16.55
2022-10-16T14:13:41.034Z,16.50
2022-10-16T14:16:13.666Z,16.48
2022-10-16T14:18:51.065Z,16.47
2022-10-16T14:21:21.052Z,16.44
2022-10-16T14:23:50.793Z,16.41
2022-10-16T14:26:23.367Z,16.39
2022-10-16T14:29:05.930Z,16.38
2022-10-16T14:31:38.550Z,16.35
2022-10-16T14:34:31.587Z,16.35
2022-10-16T14:37:27.718Z,16.32
2022-10-16T14:39:59.335Z,16.27
2022-10-16T14:42:34.951Z,16.26
2022-10-16T14:45:04.883Z,16.25
2022-10-16T14:47:35.727Z,16.22
2022-10-16T14:50:12.182Z,16.22
2022-10-16T14:52:41.998Z,16.21
2022-10-16T14:55:13.130Z,16.18
2022-10-16T14:57:43.731Z,16.17
2022-10-16T15:00:19.878Z,16.15
2022-10-16T15:02:50.484Z,16.13
2022-10-16T15:05:27.840Z,16.10
2022-10-16T15:08:22.265Z,16.07
2022-10-16T15:10:52.259Z,16.02
2022-10-16T15:13:22.119Z,15.99
2022-10-16T15:15:52.745Z,15.99
2022-10-16T15:18:23.491Z,15.97
2022-10-16T15:20:56.064Z,15.99
2022-10-16T15:25:58.641Z,16.00
2022-10-16T15:28:32.128Z,16.00
2022-10-16T15:31:02.048Z,15.99
2022-10-16T15:33:38.733Z,15.97
2022-10-16T15:36:14.447Z,15.96
2022-10-16T15:38:45.256Z,15.93
2022-10-16T15:41:15.026Z,15.94
2022-10-16T15:43:59.229Z,15.94
2022-10-16T15:46:32.218Z,15.91
2022-10-16T15:49:10.536Z,15.91
2022-10-16T15:51:59.326Z,15.91
2022-10-16T15:54:29.431Z,15.89
2022-10-16T15:57:01.121Z,15.87
2022-10-16T15:59:32.869Z,15.87
2022-10-16T16:02:03.008Z,15.86
2022-10-16T16:04:49.562Z,15.88
2022-10-16T16:07:22.333Z,15.85
2022-10-16T16:09:52.328Z,15.86
2022-10-16T16:12:22.354Z,15.83
2022-10-16T16:14:52.527Z,15.82
2022-10-16T16:17:22.561Z,15.81
2022-10-16T16:19:52.515Z,15.78
2022-10-16T16:22:25.085Z,15.76
2022-10-16T16:24:54.967Z,15.72
2022-10-16T16:27:26.211Z,15.70
2022-10-16T16:29:56.659Z,15.66
2022-10-16T16:32:26.392Z,15.62
2022-10-16T16:34:56.138Z,15.58
2022-10-16T16:37:28.932Z,15.55
2022-10-16T16:39:59.578Z,15.51
2022-10-16T16:42:29.760Z,15.47
2022-10-16T16:44:59.491Z,15.43
2022-10-16T16:47:29.813Z,15.39
2022-10-16T16:50:00.665Z,15.36
2022-10-16T16:52:33.119Z,15.32
2022-10-16T16:55:03.058Z,15.27
2022-10-16T16:57:32.760Z,15.23
2022-10-16T17:00:02.774Z,15.19
2022-10-16T17:02:32.518Z,15.17
2022-10-16T17:05:02.305Z,15.12
2022-10-16T17:07:41.308Z,15.09
2022-10-16T17:10:11.733Z,15.04
2022-10-16T17:12:41.963Z,14.99
2022-10-16T17:15:12.869Z,14.97
2022-10-16T17:17:42.577Z,14.91
2022-10-16T17:20:13.299Z,14.88
2022-10-16T17:22:45.679Z,14.86
2022-10-16T17:25:15.417Z,14.82
2022-10-16T17:27:45.318Z,14.80
2022-10-16T17:30:15.042Z,14.75
2022-10-16T17:32:44.750Z,14.75
2022-10-16T17:35:14.469Z,14.71
2022-10-16T17:37:46.843Z,14.68
2022-10-16T17:40:16.823Z,14.65
2022-10-16T17:42:46.579Z,14.62
2022-10-16T17:45:16.301Z,14.60
2022-10-16T17:47:45.997Z,14.57
2022-10-16T17:50:16.071Z,14.55
2022-10-16T17:52:48.507Z,14.52
2022-10-16T17:55:18.356Z,14.49
2022-10-16T17:57:48.174Z,14.46
2022-10-16T18:00:18.027Z,14.44
2022-10-16T18:02:47.894Z,14.42
2022-10-16T18:05:17.686Z,14.41
2022-10-16T18:07:49.998Z,14.40
2022-10-16T18:10:21.149Z,14.39
2022-10-16T18:12:51.165Z,14.36
2022-10-16T18:15:20.901Z,14.35
2022-10-16T18:17:50.603Z,14.32
2022-10-16T18:20:20.891Z,14.31
2022-10-16T18:22:53.245Z,14.28
2022-10-16T18:25:23.925Z,14.26
2022-10-16T18:27:53.663Z,14.25
2022-10-16T18:30:23.496Z,14.23
2022-10-16T18:32:53.826Z,14.20
2022-10-16T18:35:23.630Z,14.18
2022-10-16T18:37:59.070Z,14.16
2022-10-16T18:40:28.881Z,14.12
2022-10-16T18:42:58.565Z,14.08
2022-10-16T18:45:28.317Z,14.00
2022-10-16T18:47:58.021Z,13.97
2022-10-16T18:50:27.834Z,13.94
2022-10-16T18:53:00.153Z,13.94
2022-10-16T18:55:31.071Z,13.93
2022-10-16T18:58:00.911Z,13.93
2022-10-16T19:00:30.640Z,13.93
2022-10-16T19:03:00.914Z,13.92
2022-10-16T19:05:31.160Z,13.91
2022-10-16T19:08:03.473Z,13.89
2022-10-16T19:10:33.184Z,13.88
2022-10-16T19:13:03.666Z,13.88
2022-10-16T19:15:34.950Z,13.88
2022-10-16T19:18:04.651Z,13.88
2022-10-16T19:20:35.168Z,13.88
2022-10-16T19:23:07.542Z,13.83
2022-10-16T19:25:40.157Z,13.83
2022-10-16T19:28:10.255Z,13.81
2022-10-16T19:30:40.615Z,13.78
2022-10-16T19:33:10.333Z,13.76
2022-10-16T19:35:43.276Z,13.76
2022-10-16T19:38:15.725Z,13.76
2022-10-16T19:40:47.995Z,13.74
2022-10-16T19:43:20.924Z,13.75
2022-10-16T19:45:50.626Z,13.75
2022-10-16T19:50:53.072Z,13.75
2022-10-16T19:53:25.431Z,13.76
2022-10-16T19:55:55.149Z,13.75
2022-10-16T19:58:24.954Z,13.75
2022-10-16T20:00:55.160Z,13.75
2022-10-16T20:03:25.100Z,13.74
2022-10-16T20:05:55.704Z,13.73
2022-10-16T20:08:28.049Z,13.74
2022-10-16T20:10:58.025Z,13.73
2022-10-16T20:13:27.749Z,13.74
2022-10-16T20:15:57.601Z,13.74
2022-10-16T20:18:27.349Z,13.73
2022-10-16T20:20:57.045Z,13.72
2022-10-16T20:23:29.524Z,13.70
2022-10-16T20:26:04.383Z,13.70
2022-10-16T20:28:34.840Z,13.67
2022-10-16T20:31:09.917Z,13.63
2022-10-16T20:33:39.822Z,13.58
2022-10-16T20:36:14.391Z,13.55
2022-10-16T20:38:47.591Z,13.49
2022-10-16T20:41:18.613Z,13.45
2022-10-16T20:43:50.707Z,13.42
2022-10-16T20:46:23.588Z,13.38
2022-10-16T20:48:55.735Z,13.32
2022-10-16T20:51:28.275Z,13.28
2022-10-16T20:54:01.998Z,13.26
2022-10-16T20:56:33.778Z,13.24
2022-10-16T20:59:04.035Z,13.22
2022-10-16T21:01:35.834Z,13.19
2022-10-16T21:04:08.821Z,13.19
2022-10-16T21:06:42.003Z,13.18
2022-10-16T21:09:14.400Z,13.15
2022-10-16T21:11:44.130Z,13.12
2022-10-16T21:14:13.924Z,13.10
2022-10-16T21:16:43.742Z,13.08
2022-10-16T21:19:13.525Z,13.08
2022-10-16T21:21:43.326Z,13.09
2022-10-16T21:24:18.014Z,13.12
2022-10-16T21:26:47.904Z,13.16
2022-10-16T21:29:17.779Z,13.20
2022-10-16T21:31:47.577Z,13.23
2022-10-16T21:34:17.567Z,13.27
2022-10-16T21:36:47.330Z,13.32
2022-10-16T21:39:22.334Z,13.37
2022-10-16T21:41:53.746Z,13.38
2022-10-16T21:44:23.679Z,13.40
2022-10-16T21:46:54.012Z,13.44
2022-10-16T21:49:23.783Z,13.45
2022-10-16T21:51:53.973Z,13.47
2022-10-16T21:54:26.949Z,13.48
2022-10-16T21:56:57.127Z,13.48
2022-10-16T21:59:26.997Z,13.49
2022-10-16T22:01:57.098Z,13.52
2022-10-16T22:04:26.901Z,13.52
2022-10-16T22:06:56.681Z,13.55
2022-10-16T22:09:29.143Z,13.56
2022-10-16T22:11:58.922Z,13.55
2022-10-16T22:14:28.711Z,13.53
2022-10-16T22:16:58.436Z,13.51
2022-10-16T22:19:28.194Z,13.48
2022-10-16T22:22:00.593Z,13.49
2022-10-16T22:27:02.873Z,13.48
2022-10-16T22:29:32.630Z,13.44
2022-10-16T22:32:02.378Z,13.42
2022-10-16T22:34:32.130Z,13.39
2022-10-16T22:37:01.884Z,13.36
2022-10-16T22:39:34.283Z,13.36
2022-10-16T22:42:04.029Z,13.36
2022-10-16T22:44:34.097Z,13.35
2022-10-16T22:47:03.854Z,13.31
2022-10-16T22:49:33.550Z,13.27
2022-10-16T22:52:03.290Z,13.23
2022-10-16T22:54:35.604Z,13.21
2022-10-16T22:57:05.396Z,13.18
2022-10-16T22:59:35.285Z,13.18
2022-10-16T23:02:05.157Z,13.15
2022-10-16T23:04:35.574Z,13.13
2022-10-16T23:07:05.377Z,13.12
2022-10-16T23:09:37.836Z,13.11
2022-10-16T23:12:08.050Z,13.14
2022-10-16T23:14:37.801Z,13.15
2022-10-16T23:17:07.550Z,13.12
2022-10-16T23:19:37.282Z,13.09
2022-10-16T23:22:07.133Z,13.03
2022-10-16T23:24:39.485Z,13.00
2022-10-16T23:27:09.318Z,12.95
2022-10-16T23:29:39.157Z,12.92
2022-10-16T23:32:08.944Z,12.91
2022-10-16T23:34:38.778Z,12.89
2022-10-16T23:37:08.511Z,12.81
2022-10-16T23:39:40.881Z,12.77
2022-10-16T23:42:10.653Z,12.76
2022-10-16T23:44:40.637Z,12.75
2022-10-16T23:47:10.399Z,12.75
2022-10-16T23:49:40.149Z,12.76
2022-10-16T23:52:09.979Z,12.76
2022-10-16T23:54:42.406Z,12.77
2022-10-16T23:57:12.093Z,12.75
2022-10-16T23:59:41.840Z,12.75
